sensor_id;sensor_type;location;lat;lon;timestamp;P1;durP1;ratioP1;P2;durP2;ratioP2
16282;SDS011;8249;48.708;9.030;2023-04-08T00:00:47;5.00;;;4.70;;
16282;SDS011;8249;48.708;9.030;2023-04-08T00:03:14;6.17;;;5.53;;
16282;SDS011;8249;48.708;9.030;2023-04-08T00:05:41;5.80;;;5.30;;
16282;SDS011;8249;48.708;9.030;2023-04-08T00:08:08;4.67;;;4.43;;
16282;SDS011;8249;48.708;9.030;2023-04-08T00:10:35;6.27;;;5.40;;
16282;SDS011;8249;48.708;9.030;2023-04-08T00:13:03;5.80;;;5.30;;
16282;SDS011;8249;48.708;9.030;2023-04-08T00:15:30;4.67;;;4.37;;
16282;SDS011;8249;48.708;9.030;2023-04-08T00:17:57;5.13;;;4.83;;
16282;SDS011;8249;48.708;9.030;2023-04-08T00:20:24;4.57;;;4.20;;
16282;SDS011;8249;48.708;9.030;2023-04-08T00:22:51;5.00;;;4.70;;
16282;SDS011;8249;48.708;9.030;2023-04-08T00:25:18;7.90;;;5.60;;
16282;SDS011;8249;48.708;9.030;2023-04-08T00:27:45;5.17;;;4.80;;
16282;SDS011;8249;48.708;9.030;2023-04-08T00:30:13;4.03;;;3.83;;
16282;SDS011;8249;48.708;9.030;2023-04-08T00:32:41;4.73;;;4.43;;
16282;SDS011;8249;48.708;9.030;2023-04-08T00:35:08;5.50;;;5.00;;
16282;SDS011;8249;48.708;9.030;2023-04-08T00:37:37;4.20;;;4.00;;
16282;SDS011;8249;48.708;9.030;2023-04-08T00:40:04;4.57;;;4.37;;
16282;SDS011;8249;48.708;9.030;2023-04-08T00:42:32;4.33;;;4.13;;
16282;SDS011;8249;48.708;9.030;2023-04-08T00:44:59;4.03;;;3.73;;
16282;SDS011;8249;48.708;9.030;2023-04-08T00:47:27;4.03;;;3.83;;
16282;SDS011;8249;48.708;9.030;2023-04-08T00:49:54;4.37;;;4.17;;
16282;SDS011;8249;48.708;9.030;2023-04-08T00:52:21;4.47;;;4.20;;
16282;SDS011;8249;48.708;9.030;2023-04-08T00:54:48;4.27;;;3.97;;
16282;SDS011;8249;48.708;9.030;2023-04-08T00:57:15;3.80;;;3.60;;
16282;SDS011;8249;48.708;9.030;2023-04-08T00:59:42;3.77;;;3.57;;
16282;SDS011;8249;48.708;9.030;2023-04-08T01:02:11;3.53;;;3.43;;
16282;SDS011;8249;48.708;9.030;2023-04-08T01:04:46;3.67;;;3.47;;
16282;SDS011;8249;48.708;9.030;2023-04-08T01:07:19;3.93;;;3.73;;
16282;SDS011;8249;48.708;9.030;2023-04-08T01:09:51;3.80;;;3.60;;
16282;SDS011;8249;48.708;9.030;2023-04-08T01:12:21;3.97;;;3.67;;
16282;SDS011;8249;48.708;9.030;2023-04-08T01:14:54;5.23;;;4.80;;
16282;SDS011;8249;48.708;9.030;2023-04-08T01:17:26;4.60;;;3.53;;
16282;SDS011;8249;48.708;9.030;2023-04-08T01:19:54;4.30;;;3.97;;
16282;SDS011;8249;48.708;9.030;2023-04-08T01:22:26;4.03;;;3.80;;
16282;SDS011;8249;48.708;9.030;2023-04-08T01:25:04;4.17;;;3.83;;
16282;SDS011;8249;48.708;9.030;2023-04-08T01:27:35;3.80;;;3.50;;
16282;SDS011;8249;48.708;9.030;2023-04-08T01:30:03;3.50;;;3.20;;
16282;SDS011;8249;48.708;9.030;2023-04-08T01:32:33;3.97;;;3.77;;
16282;SDS011;8249;48.708;9.030;2023-04-08T01:35:02;3.30;;;3.00;;
16282;SDS011;8249;48.708;9.030;2023-04-08T01:37:30;4.30;;;4.07;;
16282;SDS011;8249;48.708;9.030;2023-04-08T01:39:58;4.57;;;4.17;;
16282;SDS011;8249;48.708;9.030;2023-04-08T01:42:26;2.80;;;2.80;;
16282;SDS011;8249;48.708;9.030;2023-04-08T01:44:56;3.70;;;3.50;;
16282;SDS011;8249;48.708;9.030;2023-04-08T01:47:24;4.43;;;3.83;;
16282;SDS011;8249;48.708;9.030;2023-04-08T01:49:53;3.93;;;3.37;;
16282;SDS011;8249;48.708;9.030;2023-04-08T01:52:21;3.87;;;3.47;;
16282;SDS011;8249;48.708;9.030;2023-04-08T01:54:50;4.40;;;4.20;;
16282;SDS011;8249;48.708;9.030;2023-04-08T01:57:21;3.37;;;3.20;;
16282;SDS011;8249;48.708;9.030;2023-04-08T01:59:52;4.67;;;4.37;;
16282;SDS011;8249;48.708;9.030;2023-04-08T02:02:25;4.13;;;3.43;;
16282;SDS011;8249;48.708;9.030;2023-04-08T02:04:54;4.10;;;3.80;;
16282;SDS011;8249;48.708;9.030;2023-04-08T02:07:21;3.57;;;3.30;;
16282;SDS011;8249;48.708;9.030;2023-04-08T02:09:49;3.70;;;3.50;;
16282;SDS011;8249;48.708;9.030;2023-04-08T02:12:16;3.80;;;3.53;;
16282;SDS011;8249;48.708;9.030;2023-04-08T02:14:43;4.00;;;3.07;;
16282;SDS011;8249;48.708;9.030;2023-04-08T02:17:13;6.43;;;5.00;;
16282;SDS011;8249;48.708;9.030;2023-04-08T02:19:45;3.43;;;3.30;;
16282;SDS011;8249;48.708;9.030;2023-04-08T02:22:18;4.40;;;4.13;;
16282;SDS011;8249;48.708;9.030;2023-04-08T02:24:53;4.67;;;4.33;;
16282;SDS011;8249;48.708;9.030;2023-04-08T02:27:21;4.20;;;4.00;;
16282;SDS011;8249;48.708;9.030;2023-04-08T02:29:50;6.00;;;5.60;;
16282;SDS011;8249;48.708;9.030;2023-04-08T02:32:22;3.47;;;3.30;;
16282;SDS011;8249;48.708;9.030;2023-04-08T02:34:51;4.43;;;4.23;;
16282;SDS011;8249;48.708;9.030;2023-04-08T02:37:19;4.80;;;4.40;;
16282;SDS011;8249;48.708;9.030;2023-04-08T02:39:46;4.77;;;4.53;;
16282;SDS011;8249;48.708;9.030;2023-04-08T02:42:13;4.00;;;3.70;;
16282;SDS011;8249;48.708;9.030;2023-04-08T02:44:40;4.17;;;3.97;;
16282;SDS011;8249;48.708;9.030;2023-04-08T02:47:07;5.57;;;4.20;;
16282;SDS011;8249;48.708;9.030;2023-04-08T02:49:35;4.53;;;4.23;;
16282;SDS011;8249;48.708;9.030;2023-04-08T02:52:02;5.40;;;4.53;;
16282;SDS011;8249;48.708;9.030;2023-04-08T02:54:29;5.73;;;5.20;;
16282;SDS011;8249;48.708;9.030;2023-04-08T02:56:56;5.27;;;4.90;;
16282;SDS011;8249;48.708;9.030;2023-04-08T02:59:23;4.77;;;4.37;;
16282;SDS011;8249;48.708;9.030;2023-04-08T03:01:50;4.70;;;4.30;;
16282;SDS011;8249;48.708;9.030;2023-04-08T03:04:17;6.20;;;5.67;;
16282;SDS011;8249;48.708;9.030;2023-04-08T03:06:45;5.37;;;5.00;;
16282;SDS011;8249;48.708;9.030;2023-04-08T03:09:12;5.37;;;4.97;;
16282;SDS011;8249;48.708;9.030;2023-04-08T03:11:39;5.23;;;4.97;;
16282;SDS011;8249;48.708;9.030;2023-04-08T03:14:06;6.87;;;6.27;;
16282;SDS011;8249;48.708;9.030;2023-04-08T03:16:33;4.50;;;4.20;;
16282;SDS011;8249;48.708;9.030;2023-04-08T03:19:00;5.83;;;5.50;;
16282;SDS011;8249;48.708;9.030;2023-04-08T03:21:26;5.30;;;5.07;;
16282;SDS011;8249;48.708;9.030;2023-04-08T03:23:57;5.87;;;5.40;;
16282;SDS011;8249;48.708;9.030;2023-04-08T03:26:24;5.40;;;4.83;;
16282;SDS011;8249;48.708;9.030;2023-04-08T03:28:51;6.90;;;6.37;;
16282;SDS011;8249;48.708;9.030;2023-04-08T03:31:18;4.70;;;4.50;;
16282;SDS011;8249;48.708;9.030;2023-04-08T03:33:46;3.77;;;3.67;;
16282;SDS011;8249;48.708;9.030;2023-04-08T03:36:13;7.07;;;5.73;;
16282;SDS011;8249;48.708;9.030;2023-04-08T03:38:40;5.83;;;5.43;;
16282;SDS011;8249;48.708;9.030;2023-04-08T03:41:08;5.90;;;5.50;;
16282;SDS011;8249;48.708;9.030;2023-04-08T03:43:35;5.23;;;4.83;;
16282;SDS011;8249;48.708;9.030;2023-04-08T03:46:02;5.77;;;5.43;;
16282;SDS011;8249;48.708;9.030;2023-04-08T03:48:29;5.00;;;4.77;;
16282;SDS011;8249;48.708;9.030;2023-04-08T03:50:55;7.23;;;6.23;;
16282;SDS011;8249;48.708;9.030;2023-04-08T03:53:22;5.57;;;5.17;;
16282;SDS011;8249;48.708;9.030;2023-04-08T03:55:52;5.20;;;5.00;;
16282;SDS011;8249;48.708;9.030;2023-04-08T03:58:20;6.07;;;5.57;;
16282;SDS011;8249;48.708;9.030;2023-04-08T04:00:47;7.37;;;6.90;;
16282;SDS011;8249;48.708;9.030;2023-04-08T04:03:14;5.50;;;5.13;;
16282;SDS011;8249;48.708;9.030;2023-04-08T04:05:41;5.27;;;4.83;;
16282;SDS011;8249;48.708;9.030;2023-04-08T04:08:08;6.53;;;6.00;;
16282;SDS011;8249;48.708;9.030;2023-04-08T04:10:35;4.63;;;4.33;;
16282;SDS011;8249;48.708;9.030;2023-04-08T04:13:02;7.50;;;6.37;;
16282;SDS011;8249;48.708;9.030;2023-04-08T04:15:31;5.90;;;5.57;;
16282;SDS011;8249;48.708;9.030;2023-04-08T04:17:58;6.20;;;5.13;;
16282;SDS011;8249;48.708;9.030;2023-04-08T04:20:25;6.83;;;6.33;;
16282;SDS011;8249;48.708;9.030;2023-04-08T04:22:54;4.97;;;4.67;;
16282;SDS011;8249;48.708;9.030;2023-04-08T04:25:21;5.77;;;5.47;;
16282;SDS011;8249;48.708;9.030;2023-04-08T04:27:48;5.43;;;5.03;;
16282;SDS011;8249;48.708;9.030;2023-04-08T04:30:15;5.17;;;4.87;;
16282;SDS011;8249;48.708;9.030;2023-04-08T04:32:45;7.83;;;5.63;;
16282;SDS011;8249;48.708;9.030;2023-04-08T04:35:12;5.23;;;4.83;;
16282;SDS011;8249;48.708;9.030;2023-04-08T04:37:39;6.27;;;5.77;;
16282;SDS011;8249;48.708;9.030;2023-04-08T04:40:06;5.07;;;4.67;;
16282;SDS011;8249;48.708;9.030;2023-04-08T04:42:33;5.27;;;4.97;;
16282;SDS011;8249;48.708;9.030;2023-04-08T04:45:00;6.20;;;5.73;;
16282;SDS011;8249;48.708;9.030;2023-04-08T04:47:27;7.70;;;6.80;;
16282;SDS011;8249;48.708;9.030;2023-04-08T04:49:58;4.53;;;4.27;;
16282;SDS011;8249;48.708;9.030;2023-04-08T04:52:25;5.10;;;4.53;;
16282;SDS011;8249;48.708;9.030;2023-04-08T04:54:52;4.77;;;3.77;;
16282;SDS011;8249;48.708;9.030;2023-04-08T04:57:19;6.47;;;5.97;;
16282;SDS011;8249;48.708;9.030;2023-04-08T04:59:46;8.53;;;7.70;;
16282;SDS011;8249;48.708;9.030;2023-04-08T05:02:12;6.40;;;5.87;;
16282;SDS011;8249;48.708;9.030;2023-04-08T05:04:39;6.67;;;4.70;;
16282;SDS011;8249;48.708;9.030;2023-04-08T05:07:08;5.13;;;4.40;;
16282;SDS011;8249;48.708;9.030;2023-04-08T05:09:35;5.83;;;5.27;;
16282;SDS011;8249;48.708;9.030;2023-04-08T05:12:01;5.77;;;5.37;;
16282;SDS011;8249;48.708;9.030;2023-04-08T05:14:28;6.17;;;5.67;;
16282;SDS011;8249;48.708;9.030;2023-04-08T05:16:56;5.57;;;5.07;;
16282;SDS011;8249;48.708;9.030;2023-04-08T05:19:23;6.97;;;5.93;;
16282;SDS011;8249;48.708;9.030;2023-04-08T05:21:49;5.57;;;5.17;;
16282;SDS011;8249;48.708;9.030;2023-04-08T05:24:18;6.27;;;5.87;;
16282;SDS011;8249;48.708;9.030;2023-04-08T05:26:45;5.73;;;5.33;;
16282;SDS011;8249;48.708;9.030;2023-04-08T05:29:16;5.13;;;4.60;;
16282;SDS011;8249;48.708;9.030;2023-04-08T05:31:43;6.47;;;5.90;;
16282;SDS011;8249;48.708;9.030;2023-04-08T05:34:10;4.83;;;4.53;;
16282;SDS011;8249;48.708;9.030;2023-04-08T05:36:37;5.63;;;5.13;;
16282;SDS011;8249;48.708;9.030;2023-04-08T05:39:05;5.80;;;5.40;;
16282;SDS011;8249;48.708;9.030;2023-04-08T05:41:33;6.00;;;4.83;;
16282;SDS011;8249;48.708;9.030;2023-04-08T05:44:00;4.80;;;4.50;;
16282;SDS011;8249;48.708;9.030;2023-04-08T05:46:27;4.80;;;4.53;;
16282;SDS011;8249;48.708;9.030;2023-04-08T05:48:54;6.20;;;5.80;;
16282;SDS011;8249;48.708;9.030;2023-04-08T05:51:21;6.57;;;6.03;;
16282;SDS011;8249;48.708;9.030;2023-04-08T05:53:48;5.43;;;5.03;;
16282;SDS011;8249;48.708;9.030;2023-04-08T05:56:15;5.30;;;5.00;;
16282;SDS011;8249;48.708;9.030;2023-04-08T05:58:43;4.83;;;4.43;;
16282;SDS011;8249;48.708;9.030;2023-04-08T06:01:10;6.93;;;6.27;;
16282;SDS011;8249;48.708;9.030;2023-04-08T06:03:37;5.17;;;4.77;;
16282;SDS011;8249;48.708;9.030;2023-04-08T06:06:08;4.20;;;4.10;;
16282;SDS011;8249;48.708;9.030;2023-04-08T06:08:36;4.17;;;3.90;;
16282;SDS011;8249;48.708;9.030;2023-04-08T06:11:05;5.47;;;5.07;;
16282;SDS011;8249;48.708;9.030;2023-04-08T06:13:32;5.00;;;4.60;;
16282;SDS011;8249;48.708;9.030;2023-04-08T06:16:10;5.33;;;4.93;;
16282;SDS011;8249;48.708;9.030;2023-04-08T06:18:37;3.87;;;3.67;;
16282;SDS011;8249;48.708;9.030;2023-04-08T06:21:04;3.60;;;3.50;;
16282;SDS011;8249;48.708;9.030;2023-04-08T06:23:31;4.10;;;3.90;;
16282;SDS011;8249;48.708;9.030;2023-04-08T06:25:58;5.07;;;4.10;;
16282;SDS011;8249;48.708;9.030;2023-04-08T06:28:25;3.93;;;3.73;;
16282;SDS011;8249;48.708;9.030;2023-04-08T06:30:54;5.27;;;4.87;;
16282;SDS011;8249;48.708;9.030;2023-04-08T06:33:22;4.10;;;3.90;;
16282;SDS011;8249;48.708;9.030;2023-04-08T06:35:49;4.70;;;4.40;;
16282;SDS011;8249;48.708;9.030;2023-04-08T06:38:16;4.03;;;3.80;;
16282;SDS011;8249;48.708;9.030;2023-04-08T06:40:43;4.27;;;4.07;;
16282;SDS011;8249;48.708;9.030;2023-04-08T06:43:10;3.77;;;3.50;;
16282;SDS011;8249;48.708;9.030;2023-04-08T06:45:40;4.10;;;3.87;;
16282;SDS011;8249;48.708;9.030;2023-04-08T06:48:07;3.90;;;3.70;;
16282;SDS011;8249;48.708;9.030;2023-04-08T06:50:35;4.40;;;4.10;;
16282;SDS011;8249;48.708;9.030;2023-04-08T06:53:02;3.30;;;3.00;;
16282;SDS011;8249;48.708;9.030;2023-04-08T06:55:30;3.70;;;3.50;;
16282;SDS011;8249;48.708;9.030;2023-04-08T06:57:57;3.40;;;3.20;;
16282;SDS011;8249;48.708;9.030;2023-04-08T07:00:26;4.13;;;3.93;;
16282;SDS011;8249;48.708;9.030;2023-04-08T07:02:53;3.53;;;3.10;;
16282;SDS011;8249;48.708;9.030;2023-04-08T07:05:20;3.30;;;3.20;;
16282;SDS011;8249;48.708;9.030;2023-04-08T07:07:48;3.70;;;3.50;;
16282;SDS011;8249;48.708;9.030;2023-04-08T07:10:16;3.27;;;3.17;;
16282;SDS011;8249;48.708;9.030;2023-04-08T07:12:43;3.53;;;3.33;;
16282;SDS011;8249;48.708;9.030;2023-04-08T07:15:10;5.83;;;3.27;;
16282;SDS011;8249;48.708;9.030;2023-04-08T07:17:37;2.90;;;2.80;;
16282;SDS011;8249;48.708;9.030;2023-04-08T07:20:05;2.83;;;2.73;;
16282;SDS011;8249;48.708;9.030;2023-04-08T07:22:35;3.23;;;3.03;;
16282;SDS011;8249;48.708;9.030;2023-04-08T07:25:03;3.27;;;3.17;;
16282;SDS011;8249;48.708;9.030;2023-04-08T07:27:32;2.80;;;2.70;;
16282;SDS011;8249;48.708;9.030;2023-04-08T07:29:59;2.83;;;2.73;;
16282;SDS011;8249;48.708;9.030;2023-04-08T07:32:27;3.70;;;3.50;;
16282;SDS011;8249;48.708;9.030;2023-04-08T07:34:54;2.90;;;2.80;;
16282;SDS011;8249;48.708;9.030;2023-04-08T07:37:21;3.97;;;3.67;;
16282;SDS011;8249;48.708;9.030;2023-04-08T07:39:48;2.73;;;2.63;;
16282;SDS011;8249;48.708;9.030;2023-04-08T07:42:18;3.17;;;2.73;;
16282;SDS011;8249;48.708;9.030;2023-04-08T07:44:46;3.13;;;3.03;;
16282;SDS011;8249;48.708;9.030;2023-04-08T07:47:13;4.13;;;3.20;;
16282;SDS011;8249;48.708;9.030;2023-04-08T07:49:40;3.30;;;3.20;;
16282;SDS011;8249;48.708;9.030;2023-04-08T07:52:07;3.60;;;3.40;;
16282;SDS011;8249;48.708;9.030;2023-04-08T07:54:35;2.90;;;2.80;;
16282;SDS011;8249;48.708;9.030;2023-04-08T07:57:01;2.90;;;2.80;;
16282;SDS011;8249;48.708;9.030;2023-04-08T07:59:30;2.90;;;2.80;;
16282;SDS011;8249;48.708;9.030;2023-04-08T08:01:57;2.93;;;2.83;;
16282;SDS011;8249;48.708;9.030;2023-04-08T08:04:24;4.23;;;3.17;;
16282;SDS011;8249;48.708;9.030;2023-04-08T08:06:54;3.20;;;3.10;;
16282;SDS011;8249;48.708;9.030;2023-04-08T08:09:21;3.03;;;2.93;;
16282;SDS011;8249;48.708;9.030;2023-04-08T08:11:48;4.40;;;3.77;;
16282;SDS011;8249;48.708;9.030;2023-04-08T08:14:15;3.53;;;3.33;;
16282;SDS011;8249;48.708;9.030;2023-04-08T08:16:43;3.23;;;3.03;;
16282;SDS011;8249;48.708;9.030;2023-04-08T08:19:10;3.30;;;3.17;;
16282;SDS011;8249;48.708;9.030;2023-04-08T08:21:38;3.70;;;3.50;;
16282;SDS011;8249;48.708;9.030;2023-04-08T08:24:05;4.10;;;3.80;;
16282;SDS011;8249;48.708;9.030;2023-04-08T08:26:33;4.10;;;3.70;;
16282;SDS011;8249;48.708;9.030;2023-04-08T08:29:01;3.90;;;3.70;;
16282;SDS011;8249;48.708;9.030;2023-04-08T08:31:28;3.40;;;3.20;;
16282;SDS011;8249;48.708;9.030;2023-04-08T08:33:56;3.73;;;3.23;;
16282;SDS011;8249;48.708;9.030;2023-04-08T08:36:23;4.33;;;3.93;;
16282;SDS011;8249;48.708;9.030;2023-04-08T08:38:51;3.30;;;3.20;;
16282;SDS011;8249;48.708;9.030;2023-04-08T08:41:18;3.33;;;3.17;;
16282;SDS011;8249;48.708;9.030;2023-04-08T08:43:45;4.43;;;3.47;;
16282;SDS011;8249;48.708;9.030;2023-04-08T08:46:14;3.80;;;3.43;;
16282;SDS011;8249;48.708;9.030;2023-04-08T08:48:43;3.33;;;3.13;;
16282;SDS011;8249;48.708;9.030;2023-04-08T08:51:13;3.43;;;3.20;;
16282;SDS011;8249;48.708;9.030;2023-04-08T08:53:40;3.07;;;2.87;;
16282;SDS011;8249;48.708;9.030;2023-04-08T08:56:09;3.63;;;3.43;;
16282;SDS011;8249;48.708;9.030;2023-04-08T08:58:37;3.63;;;3.30;;
16282;SDS011;8249;48.708;9.030;2023-04-08T09:04:05;4.03;;;3.73;;
16282;SDS011;8249;48.708;9.030;2023-04-08T09:06:35;3.27;;;3.17;;
16282;SDS011;8249;48.708;9.030;2023-04-08T09:09:02;3.20;;;3.10;;
16282;SDS011;8249;48.708;9.030;2023-04-08T09:11:34;3.37;;;3.27;;
16282;SDS011;8249;48.708;9.030;2023-04-08T09:14:02;3.17;;;3.07;;
16282;SDS011;8249;48.708;9.030;2023-04-08T09:16:30;3.73;;;3.30;;
16282;SDS011;8249;48.708;9.030;2023-04-08T09:19:06;2.47;;;2.37;;
16282;SDS011;8249;48.708;9.030;2023-04-08T09:21:36;3.80;;;3.50;;
16282;SDS011;8249;48.708;9.030;2023-04-08T09:24:05;3.10;;;2.93;;
16282;SDS011;8249;48.708;9.030;2023-04-08T09:26:32;3.87;;;3.57;;
16282;SDS011;8249;48.708;9.030;2023-04-08T09:29:02;3.70;;;3.40;;
16282;SDS011;8249;48.708;9.030;2023-04-08T09:31:30;3.23;;;3.07;;
16282;SDS011;8249;48.708;9.030;2023-04-08T09:33:59;3.77;;;3.47;;
16282;SDS011;8249;48.708;9.030;2023-04-08T09:36:35;3.23;;;3.10;;
16282;SDS011;8249;48.708;9.030;2023-04-08T09:39:02;4.73;;;3.73;;
16282;SDS011;8249;48.708;9.030;2023-04-08T09:41:32;4.30;;;3.90;;
16282;SDS011;8249;48.708;9.030;2023-04-08T09:43:59;3.80;;;3.43;;
16282;SDS011;8249;48.708;9.030;2023-04-08T09:46:31;3.73;;;3.43;;
16282;SDS011;8249;48.708;9.030;2023-04-08T09:49:04;3.27;;;3.07;;
16282;SDS011;8249;48.708;9.030;2023-04-08T09:51:34;4.57;;;3.80;;
16282;SDS011;8249;48.708;9.030;2023-04-08T09:54:12;4.07;;;3.77;;
16282;SDS011;8249;48.708;9.030;2023-04-08T09:56:42;4.03;;;3.83;;
16282;SDS011;8249;48.708;9.030;2023-04-08T09:59:14;5.53;;;4.57;;
16282;SDS011;8249;48.708;9.030;2023-04-08T10:01:44;4.60;;;4.23;;
16282;SDS011;8249;48.708;9.030;2023-04-08T10:04:15;3.37;;;3.17;;
16282;SDS011;8249;48.708;9.030;2023-04-08T10:06:48;3.03;;;2.90;;
16282;SDS011;8249;48.708;9.030;2023-04-08T10:09:20;3.90;;;3.60;;
16282;SDS011;8249;48.708;9.030;2023-04-08T10:11:48;3.93;;;3.70;;
16282;SDS011;8249;48.708;9.030;2023-04-08T10:14:15;5.43;;;4.47;;
16282;SDS011;8249;48.708;9.030;2023-04-08T10:16:42;6.67;;;3.70;;
16282;SDS011;8249;48.708;9.030;2023-04-08T10:19:34;4.40;;;4.00;;
16282;SDS011;8249;48.708;9.030;2023-04-08T10:22:16;5.47;;;5.07;;
16282;SDS011;8249;48.708;9.030;2023-04-08T10:25:30;4.33;;;4.03;;
16282;SDS011;8249;48.708;9.030;2023-04-08T10:27:58;3.47;;;3.27;;
16282;SDS011;8249;48.708;9.030;2023-04-08T10:30:38;4.03;;;3.63;;
16282;SDS011;8249;48.708;9.030;2023-04-08T10:33:10;4.23;;;3.93;;
16282;SDS011;8249;48.708;9.030;2023-04-08T10:35:40;3.50;;;3.23;;
16282;SDS011;8249;48.708;9.030;2023-04-08T10:38:12;3.83;;;3.40;;
16282;SDS011;8249;48.708;9.030;2023-04-08T10:40:40;4.47;;;4.17;;
16282;SDS011;8249;48.708;9.030;2023-04-08T10:43:08;3.90;;;3.70;;
16282;SDS011;8249;48.708;9.030;2023-04-08T10:45:36;3.37;;;3.17;;
16282;SDS011;8249;48.708;9.030;2023-04-08T10:48:10;4.90;;;4.50;;
16282;SDS011;8249;48.708;9.030;2023-04-08T10:50:38;3.90;;;3.70;;
16282;SDS011;8249;48.708;9.030;2023-04-08T10:53:06;4.57;;;4.27;;
16282;SDS011;8249;48.708;9.030;2023-04-08T10:55:34;3.90;;;3.70;;
16282;SDS011;8249;48.708;9.030;2023-04-08T10:58:05;4.63;;;4.33;;
16282;SDS011;8249;48.708;9.030;2023-04-08T11:00:33;3.60;;;3.40;;
16282;SDS011;8249;48.708;9.030;2023-04-08T11:03:01;4.70;;;4.40;;
16282;SDS011;8249;48.708;9.030;2023-04-08T11:05:30;4.40;;;4.00;;
16282;SDS011;8249;48.708;9.030;2023-04-08T11:07:57;4.30;;;4.00;;
16282;SDS011;8249;48.708;9.030;2023-04-08T11:10:24;3.13;;;3.03;;
16282;SDS011;8249;48.708;9.030;2023-04-08T11:12:54;3.60;;;3.40;;
16282;SDS011;8249;48.708;9.030;2023-04-08T11:15:22;3.63;;;3.17;;
16282;SDS011;8249;48.708;9.030;2023-04-08T11:17:50;3.60;;;3.40;;
16282;SDS011;8249;48.708;9.030;2023-04-08T11:20:19;5.07;;;3.77;;
16282;SDS011;8249;48.708;9.030;2023-04-08T11:22:46;5.13;;;4.73;;
16282;SDS011;8249;48.708;9.030;2023-04-08T11:25:14;3.83;;;3.63;;
16282;SDS011;8249;48.708;9.030;2023-04-08T11:27:41;3.57;;;3.30;;
16282;SDS011;8249;48.708;9.030;2023-04-08T11:30:10;3.67;;;3.47;;
16282;SDS011;8249;48.708;9.030;2023-04-08T11:32:38;4.50;;;4.20;;
16282;SDS011;8249;48.708;9.030;2023-04-08T11:35:06;4.97;;;4.57;;
16282;SDS011;8249;48.708;9.030;2023-04-08T11:37:36;5.17;;;4.87;;
16282;SDS011;8249;48.708;9.030;2023-04-08T11:40:07;5.73;;;4.37;;
16282;SDS011;8249;48.708;9.030;2023-04-08T11:42:36;3.83;;;3.33;;
16282;SDS011;8249;48.708;9.030;2023-04-08T11:45:12;5.00;;;3.57;;
16282;SDS011;8249;48.708;9.030;2023-04-08T11:47:40;4.10;;;3.80;;
16282;SDS011;8249;48.708;9.030;2023-04-08T11:50:08;4.27;;;3.97;;
16282;SDS011;8249;48.708;9.030;2023-04-08T11:52:44;3.27;;;3.17;;
16282;SDS011;8249;48.708;9.030;2023-04-08T11:55:20;4.40;;;4.17;;
16282;SDS011;8249;48.708;9.030;2023-04-08T11:57:48;4.57;;;4.17;;
16282;SDS011;8249;48.708;9.030;2023-04-08T12:00:18;3.20;;;3.00;;
16282;SDS011;8249;48.708;9.030;2023-04-08T12:02:45;4.77;;;4.37;;
16282;SDS011;8249;48.708;9.030;2023-04-08T12:05:13;4.90;;;4.23;;
16282;SDS011;8249;48.708;9.030;2023-04-08T12:07:40;4.30;;;3.97;;
16282;SDS011;8249;48.708;9.030;2023-04-08T12:10:07;4.83;;;4.53;;
16282;SDS011;8249;48.708;9.030;2023-04-08T12:12:35;4.83;;;4.53;;
16282;SDS011;8249;48.708;9.030;2023-04-08T12:15:02;4.70;;;4.30;;
16282;SDS011;8249;48.708;9.030;2023-04-08T12:17:31;4.43;;;4.10;;
16282;SDS011;8249;48.708;9.030;2023-04-08T12:19:58;3.77;;;3.57;;
16282;SDS011;8249;48.708;9.030;2023-04-08T12:22:26;3.53;;;3.23;;
16282;SDS011;8249;48.708;9.030;2023-04-08T12:24:53;4.77;;;4.20;;
16282;SDS011;8249;48.708;9.030;2023-04-08T12:27:20;4.57;;;4.27;;
16282;SDS011;8249;48.708;9.030;2023-04-08T12:29:47;5.00;;;4.60;;
16282;SDS011;8249;48.708;9.030;2023-04-08T12:32:14;4.13;;;3.83;;
16282;SDS011;8249;48.708;9.030;2023-04-08T12:34:42;5.77;;;5.27;;
16282;SDS011;8249;48.708;9.030;2023-04-08T12:37:10;4.40;;;4.00;;
16282;SDS011;8249;48.708;9.030;2023-04-08T12:39:37;5.17;;;4.70;;
16282;SDS011;8249;48.708;9.030;2023-04-08T12:42:04;5.73;;;5.23;;
16282;SDS011;8249;48.708;9.030;2023-04-08T12:44:31;7.30;;;5.30;;
16282;SDS011;8249;48.708;9.030;2023-04-08T12:46:58;4.93;;;4.60;;
16282;SDS011;8249;48.708;9.030;2023-04-08T12:49:25;3.93;;;3.73;;
16282;SDS011;8249;48.708;9.030;2023-04-08T12:51:54;4.23;;;3.93;;
16282;SDS011;8249;48.708;9.030;2023-04-08T12:54:21;5.10;;;4.67;;
16282;SDS011;8249;48.708;9.030;2023-04-08T12:56:48;4.00;;;3.87;;
16282;SDS011;8249;48.708;9.030;2023-04-08T12:59:15;3.97;;;3.63;;
16282;SDS011;8249;48.708;9.030;2023-04-08T13:01:42;4.53;;;4.23;;
16282;SDS011;8249;48.708;9.030;2023-04-08T13:04:09;4.97;;;4.50;;
16282;SDS011;8249;48.708;9.030;2023-04-08T13:06:36;3.97;;;3.77;;
16282;SDS011;8249;48.708;9.030;2023-04-08T13:09:04;3.80;;;3.57;;
16282;SDS011;8249;48.708;9.030;2023-04-08T13:11:32;4.77;;;3.30;;
16282;SDS011;8249;48.708;9.030;2023-04-08T13:13:59;4.40;;;4.00;;
16282;SDS011;8249;48.708;9.030;2023-04-08T13:16:26;4.90;;;4.37;;
16282;SDS011;8249;48.708;9.030;2023-04-08T13:18:53;3.70;;;3.50;;
16282;SDS011;8249;48.708;9.030;2023-04-08T13:21:21;4.40;;;4.07;;
16282;SDS011;8249;48.708;9.030;2023-04-08T13:23:48;4.97;;;4.67;;
16282;SDS011;8249;48.708;9.030;2023-04-08T13:26:16;4.03;;;3.73;;
16282;SDS011;8249;48.708;9.030;2023-04-08T13:28:43;4.20;;;4.00;;
16282;SDS011;8249;48.708;9.030;2023-04-08T13:31:10;4.10;;;3.87;;
16282;SDS011;8249;48.708;9.030;2023-04-08T13:33:38;3.90;;;3.70;;
16282;SDS011;8249;48.708;9.030;2023-04-08T13:36:05;5.60;;;3.43;;
16282;SDS011;8249;48.708;9.030;2023-04-08T13:38:32;4.57;;;4.07;;
16282;SDS011;8249;48.708;9.030;2023-04-08T13:40:58;4.13;;;3.77;;
16282;SDS011;8249;48.708;9.030;2023-04-08T13:43:27;4.20;;;3.90;;
16282;SDS011;8249;48.708;9.030;2023-04-08T13:45:54;4.20;;;4.00;;
16282;SDS011;8249;48.708;9.030;2023-04-08T13:48:21;4.83;;;4.33;;
16282;SDS011;8249;48.708;9.030;2023-04-08T13:50:48;5.13;;;4.80;;
16282;SDS011;8249;48.708;9.030;2023-04-08T13:53:15;3.70;;;3.57;;
16282;SDS011;8249;48.708;9.030;2023-04-08T13:55:42;4.70;;;4.30;;
16282;SDS011;8249;48.708;9.030;2023-04-08T13:58:09;3.77;;;3.47;;
16282;SDS011;8249;48.708;9.030;2023-04-08T14:00:37;3.77;;;3.57;;
16282;SDS011;8249;48.708;9.030;2023-04-08T14:03:04;3.87;;;3.67;;
16282;SDS011;8249;48.708;9.030;2023-04-08T14:05:31;4.13;;;3.53;;
16282;SDS011;8249;48.708;9.030;2023-04-08T14:07:58;3.60;;;3.30;;
16282;SDS011;8249;48.708;9.030;2023-04-08T14:10:25;4.40;;;4.00;;
16282;SDS011;8249;48.708;9.030;2023-04-08T14:12:52;3.60;;;3.40;;
16282;SDS011;8249;48.708;9.030;2023-04-08T14:15:19;6.73;;;3.43;;
16282;SDS011;8249;48.708;9.030;2023-04-08T14:17:48;4.87;;;4.33;;
16282;SDS011;8249;48.708;9.030;2023-04-08T14:20:15;4.53;;;4.13;;
16282;SDS011;8249;48.708;9.030;2023-04-08T14:22:42;6.87;;;3.97;;
16282;SDS011;8249;48.708;9.030;2023-04-08T14:25:09;3.30;;;3.20;;
16282;SDS011;8249;48.708;9.030;2023-04-08T14:27:36;3.60;;;3.30;;
16282;SDS011;8249;48.708;9.030;2023-04-08T14:30:03;3.30;;;3.10;;
16282;SDS011;8249;48.708;9.030;2023-04-08T14:32:31;3.60;;;3.40;;
16282;SDS011;8249;48.708;9.030;2023-04-08T14:34:59;3.63;;;3.43;;
16282;SDS011;8249;48.708;9.030;2023-04-08T14:37:26;3.80;;;3.60;;
16282;SDS011;8249;48.708;9.030;2023-04-08T14:39:55;3.83;;;3.63;;
16282;SDS011;8249;48.708;9.030;2023-04-08T14:42:22;3.77;;;3.60;;
16282;SDS011;8249;48.708;9.030;2023-04-08T14:44:49;4.23;;;3.93;;
16282;SDS011;8249;48.708;9.030;2023-04-08T14:47:16;4.57;;;4.27;;
16282;SDS011;8249;48.708;9.030;2023-04-08T14:49:43;4.83;;;4.37;;
16282;SDS011;8249;48.708;9.030;2023-04-08T14:52:11;3.60;;;3.40;;
16282;SDS011;8249;48.708;9.030;2023-04-08T14:54:38;4.33;;;3.70;;
16282;SDS011;8249;48.708;9.030;2023-04-08T14:57:05;4.43;;;4.10;;
16282;SDS011;8249;48.708;9.030;2023-04-08T14:59:32;4.57;;;4.27;;
16282;SDS011;8249;48.708;9.030;2023-04-08T15:01:59;4.47;;;4.17;;
16282;SDS011;8249;48.708;9.030;2023-04-08T15:04:26;4.20;;;3.87;;
16282;SDS011;8249;48.708;9.030;2023-04-08T15:06:53;3.73;;;3.53;;
16282;SDS011;8249;48.708;9.030;2023-04-08T15:09:21;3.90;;;3.70;;